Time;durP1;ratioP1;P1;durP2;ratioP2;P2;SDS_P1;SDS_P2;PMS_P1;PMS_P2;Temp;Humidity;BMP_temperature;BMP_pressure;BME280_temperature;BME280_humidity;BME280_pressure;Samples;Min_cycle;Max_cycle;Signal;HPM_P1;HPM_P2
2022/03/02 00:00:11;;;;;;;36.80;24.90;;;;;;;0.76;50.50;101714.48;108567;1277;22531;-76
2022/03/02 00:02:39;;;;;;;39.90;26.60;;;;;;;0.71;50.74;101715.14;107796;1278;22673;-76
2022/03/02 00:05:07;;;;;;;43.90;25.40;;;;;;;0.71;50.85;101713.71;108270;1279;25359;-75
2022/03/02 00:07:34;;;;;;;43.40;26.60;;;;;;;0.69;50.89;101717.95;108699;1279;22661;-77
2022/03/02 00:10:04;;;;;;;43.20;27.40;;;;;;;0.69;51.00;101717.77;108804;1277;22758;-77
2022/03/02 00:12:33;;;;;;;40.90;26.50;;;;;;;0.75;51.10;101712.70;108538;1278;22522;-77
2022/03/02 00:15:01;;;;;;;39.00;26.30;;;;;;;0.82;51.13;101711.15;108681;1279;22561;-78
2022/03/02 00:17:29;;;;;;;40.30;26.50;;;;;;;0.83;51.11;101710.52;108124;1279;24098;-78
2022/03/02 00:19:56;;;;;;;42.20;26.60;;;;;;;0.82;51.09;101709.44;106978;1274;22527;-76
2022/03/02 00:22:24;;;;;;;42.50;27.00;;;;;;;0.81;51.21;101703.33;106969;1274;23060;-78
2022/03/02 00:24:51;;;;;;;41.90;26.10;;;;;;;0.80;51.18;101703.80;107092;1273;26526;-81
2022/03/02 00:27:19;;;;;;;43.00;27.70;;;;;;;0.78;51.27;101702.80;106458;1274;24452;-78
2022/03/02 00:29:46;;;;;;;45.70;28.20;;;;;;;0.82;51.32;101704.59;106521;1272;24222;-77
2022/03/02 00:32:14;;;;;;;43.70;27.00;;;;;;;0.79;51.31;101707.02;106517;1271;24259;-77
2022/03/02 00:34:42;;;;;;;44.80;27.60;;;;;;;0.71;51.28;101703.16;106300;1271;23133;-75
2022/03/02 00:37:09;;;;;;;41.90;27.10;;;;;;;0.63;51.41;101699.08;106650;1273;22614;-80
2022/03/02 00:39:37;;;;;;;41.20;26.90;;;;;;;0.62;51.47;101704.58;106677;1274;22560;-77
2022/03/02 00:42:06;;;;;;;46.00;28.80;;;;;;;0.61;51.51;101700.71;105830;1279;22598;-76
2022/03/02 00:44:34;;;;;;;45.50;28.40;;;;;;;0.60;51.60;101697.68;105569;1279;25362;-76
2022/03/02 00:47:03;;;;;;;49.90;29.30;;;;;;;0.58;51.54;101695.34;105860;1279;25346;-76
2022/03/02 00:49:32;;;;;;;50.30;31.20;;;;;;;0.53;51.48;101695.24;105709;1280;25435;-75
2022/03/02 00:51:59;;;;;;;49.10;30.10;;;;;;;0.45;51.38;101692.10;105291;1285;24694;-78
2022/03/02 00:54:26;;;;;;;48.90;30.10;;;;;;;0.42;51.66;101688.99;105253;1284;22602;-75
2022/03/02 00:56:53;;;;;;;46.20;29.00;;;;;;;0.41;51.68;101684.59;105063;1285;23415;-79
2022/03/02 00:59:22;;;;;;;52.50;30.00;;;;;;;0.38;51.84;101679.40;104925;1284;24240;-82
2022/03/02 01:01:50;;;;;;;49.80;31.50;;;;;;;0.39;51.76;101686.57;105853;1276;22553;-79
2022/03/02 01:04:17;;;;;;;57.90;32.30;;;;;;;0.36;51.62;101684.52;105755;1278;25468;-81
2022/03/02 01:06:44;;;;;;;52.80;30.40;;;;;;;0.37;51.88;101678.34;105721;1276;23654;-82
2022/03/02 01:09:12;;;;;;;54.10;31.10;;;;;;;0.39;51.70;101678.41;105782;1276;22537;-81
2022/03/02 01:11:39;;;;;;;52.60;32.30;;;;;;;0.34;51.63;101677.29;106045;1271;23950;-80
2022/03/02 01:14:06;;;;;;;50.90;30.20;;;;;;;0.30;51.54;101681.08;105715;1277;25469;-79
2022/03/02 01:16:33;;;;;;;52.30;30.90;;;;;;;0.24;51.39;101671.91;105721;1277;22657;-79
2022/03/02 01:19:00;;;;;;;64.00;31.80;;;;;;;0.24;51.53;101674.88;105237;1282;22538;-78
2022/03/02 01:21:28;;;;;;;56.20;31.60;;;;;;;0.26;51.58;101671.67;105119;1283;24255;-76
2022/03/02 01:23:57;;;;;;;51.10;30.10;;;;;;;0.29;51.56;101671.81;105128;1284;22672;-74
2022/03/02 01:26:25;;;;;;;56.40;30.80;;;;;;;0.30;51.47;101667.58;105215;1281;23936;-74
2022/03/02 01:28:54;;;;;;;51.00;30.00;;;;;;;0.27;51.39;101664.41;105241;1283;25357;-74
2022/03/02 01:31:23;;;;;;;52.80;29.60;;;;;;;0.28;51.59;101661.71;105500;1282;23017;-75
2022/03/02 01:33:52;;;;;;;57.60;29.70;;;;;;;0.29;51.47;101661.78;105806;1278;22864;-74
2022/03/02 01:36:21;;;;;;;49.40;29.70;;;;;;;0.26;51.45;101658.34;105576;1274;23917;-75
2022/03/02 01:38:48;;;;;;;48.90;29.00;;;;;;;0.24;51.51;101660.65;106036;1271;22531;-77
2022/03/02 01:44:35;;;;;;;45.70;27.20;;;;;;;0.18;51.46;101659.80;106233;1271;22683;-77
2022/03/02 01:47:04;;;;;;;57.70;30.00;;;;;;;0.14;51.42;101654.39;106069;1271;24372;-79
2022/03/02 01:49:32;;;;;;;47.40;27.90;;;;;;;0.15;51.58;101649.94;106091;1271;25354;-79
2022/03/02 01:52:00;;;;;;;55.30;29.90;;;;;;;0.16;51.63;101647.56;106030;1271;25232;-78
2022/03/02 01:54:27;;;;;;;53.30;29.70;;;;;;;0.16;51.61;101650.16;106217;1271;22525;-77
2022/03/02 01:56:54;;;;;;;56.30;28.80;;;;;;;0.13;51.66;101646.55;106157;1271;23979;-79
2022/03/02 01:59:21;;;;;;;51.60;28.50;;;;;;;0.14;51.76;101641.92;106069;1271;22527;-76
2022/03/02 02:01:48;;;;;;;50.80;28.40;;;;;;;0.15;51.77;101643.71;105642;1279;22668;-78
2022/03/02 02:04:15;;;;;;;49.20;28.50;;;;;;;0.13;51.80;101641.00;105449;1280;23992;-78
2022/03/02 02:06:42;;;;;;;50.70;28.90;;;;;;;0.11;51.85;101635.53;105541;1279;22556;-79
2022/03/02 02:09:09;;;;;;;51.90;29.80;;;;;;;0.07;51.82;101635.13;105594;1279;22547;-79
2022/03/02 02:11:37;;;;;;;62.80;29.70;;;;;;;0.03;51.91;101628.52;105638;1279;24294;-80
2022/03/02 02:14:04;;;;;;;50.30;28.40;;;;;;;-0.01;51.91;101625.55;105744;1277;24255;-76
2022/03/02 02:16:35;;;;;;;51.80;29.10;;;;;;;-0.06;52.01;101627.02;105656;1279;22550;-79
2022/03/02 02:19:02;;;;;;;51.00;28.90;;;;;;;-0.12;52.20;101624.80;105593;1279;22534;-75
2022/03/02 02:21:29;;;;;;;51.00;29.10;;;;;;;-0.15;52.14;101625.84;106213;1271;24255;-81
2022/03/02 02:23:56;;;;;;;50.30;28.80;;;;;;;-0.19;52.32;101619.20;106082;1271;25244;-76
2022/03/02 02:26:25;;;;;;;50.80;29.50;;;;;;;-0.15;52.26;101619.77;106143;1271;24219;-77
2022/03/02 02:28:53;;;;;;;53.60;30.20;;;;;;;-0.14;52.35;101614.83;106135;1272;24266;-74
2022/03/02 02:31:21;;;;;;;47.00;28.80;;;;;;;-0.13;52.21;101612.45;106389;1271;24409;-75
2022/03/02 02:33:49;;;;;;;50.00;29.00;;;;;;;-0.12;52.40;101604.50;106241;1271;23921;-74
2022/03/02 02:36:16;;;;;;;51.60;28.60;;;;;;;-0.17;52.48;101601.34;106209;1272;22522;-75
2022/03/02 02:38:43;;;;;;;51.20;29.50;;;;;;;-0.15;52.60;101605.92;106369;1271;22541;-77
2022/03/02 02:41:10;;;;;;;56.00;30.60;;;;;;;-0.20;52.55;101607.38;106313;1274;22542;-76
2022/03/02 02:43:42;;;;;;;51.50;28.80;;;;;;;-0.22;52.56;101605.84;106268;1271;22645;-76
2022/03/02 02:46:11;;;;;;;50.60;27.70;;;;;;;-0.25;52.63;101602.94;106160;1271;24231;-75
2022/03/02 02:48:38;;;;;;;51.10;29.00;;;;;;;-0.28;52.84;101604.17;106233;1271;22705;-74
2022/03/02 02:51:07;;;;;;;54.10;29.20;;;;;;;-0.26;52.89;101602.75;106303;1271;22554;-74
2022/03/02 02:53:34;;;;;;;56.10;29.60;;;;;;;-0.29;52.78;101604.48;106059;1276;22569;-81
2022/03/02 02:56:01;;;;;;;51.60;31.80;;;;;;;-0.35;52.91;101598.27;105968;1277;22649;-73
2022/03/02 02:58:28;;;;;;;54.60;33.30;;;;;;;-0.42;52.89;101600.83;106044;1274;22603;-75
2022/03/02 03:00:55;;;;;;;57.30;37.30;;;;;;;-0.44;53.00;101601.54;106087;1274;25175;-71
2022/03/02 03:03:22;;;;;;;52.30;32.80;;;;;;;-0.47;53.13;101598.43;105967;1277;22525;-75
2022/03/02 03:05:52;;;;;;;59.00;35.30;;;;;;;-0.53;53.01;101599.70;106130;1275;24230;-76
2022/03/02 03:08:19;;;;;;;64.40;41.90;;;;;;;-0.60;53.29;101589.31;105879;1277;22720;-74
2022/03/02 03:10:47;;;;;;;66.40;43.40;;;;;;;-0.56;53.26;101592.24;105788;1274;25477;-77
2022/03/02 03:13:15;;;;;;;67.60;42.10;;;;;;;-0.52;53.26;101594.94;106276;1270;22720;-75
2022/03/02 03:15:43;;;;;;;63.80;40.70;;;;;;;-0.48;53.26;101594.08;106477;1271;22536;-71
2022/03/02 03:18:11;;;;;;;65.80;41.20;;;;;;;-0.52;53.24;101588.86;106464;1271;25242;-71
2022/03/02 03:20:39;;;;;;;63.90;41.10;;;;;;;-0.51;53.39;101588.60;105717;1279;23141;-73
2022/03/02 03:23:07;;;;;;;61.30;40.50;;;;;;;-0.47;53.46;101585.63;105663;1280;22571;-76
2022/03/02 03:25:34;;;;;;;63.30;40.30;;;;;;;-0.42;53.43;101582.27;105749;1279;22648;-73
2022/03/02 03:28:02;;;;;;;61.90;38.70;;;;;;;-0.46;53.45;101578.96;105771;1278;24237;-75
2022/03/02 03:30:30;;;;;;;66.40;42.00;;;;;;;-0.52;53.38;101575.52;105621;1278;25241;-77
2022/03/02 03:32:57;;;;;;;62.60;40.50;;;;;;;-0.60;53.49;101573.55;105888;1281;23911;-72
2022/03/02 03:35:26;;;;;;;60.20;40.60;;;;;;;-0.66;53.60;101572.18;105685;1278;24788;-72
2022/03/02 03:37:54;;;;;;;64.10;37.60;;;;;;;-0.61;53.78;101568.31;105761;1281;22706;-72
2022/03/02 03:40:21;;;;;;;67.90;38.80;;;;;;;-0.61;53.83;101565.37;106074;1274;24702;-73
2022/03/02 03:42:50;;;;;;;63.50;39.50;;;;;;;-0.58;53.94;101565.50;105990;1277;25588;-73
2022/03/02 03:45:18;;;;;;;60.40;37.30;;;;;;;-0.56;53.87;101564.92;105908;1277;25251;-73
2022/03/02 03:47:46;;;;;;;61.00;38.80;;;;;;;-0.57;53.79;101561.23;105828;1279;22553;-74
2022/03/02 03:50:14;;;;;;;56.80;37.80;;;;;;;-0.57;53.84;101559.30;105830;1278;23067;-73
2022/03/02 03:52:42;;;;;;;63.70;37.50;;;;;;;-0.57;53.97;101561.27;106012;1277;22873;-74
2022/03/02 03:55:13;;;;;;;64.40;38.30;;;;;;;-0.59;53.82;101557.48;106038;1277;24221;-70
2022/03/02 03:57:41;;;;;;;56.30;35.70;;;;;;;-0.63;54.00;101555.55;105734;1278;22983;-70
2022/03/02 04:00:13;;;;;;;54.20;33.80;;;;;;;-0.62;54.09;101551.47;105861;1275;22527;-70
2022/03/02 04:02:41;;;;;;;59.60;34.30;;;;;;;-0.59;54.20;101549.00;106270;1273;24282;-70
2022/03/02 04:05:09;;;;;;;56.40;35.40;;;;;;;-0.64;54.13;101549.11;106007;1276;25869;-70
2022/03/02 04:08:23;;;;;;;56.60;34.20;;;;;;;-0.65;54.20;101550.41;105871;1277;22720;-72
2022/03/02 04:10:50;;;;;;;56.50;34.50;;;;;;;-0.67;54.31;101547.35;105399;1281;24302;-73
2022/03/02 04:13:17;;;;;;;56.40;35.50;;;;;;;-0.68;54.33;101543.13;105303;1284;25395;-71
2022/03/02 04:15:44;;;;;;;54.80;33.50;;;;;;;-0.67;54.40;101542.55;104522;1290;25264;-69
2022/03/02 04:18:12;;;;;;;60.30;33.70;;;;;;;-0.64;54.34;101541.27;104510;1291;25490;-71
2022/03/02 04:20:39;;;;;;;60.10;32.70;;;;;;;-0.67;54.45;101539.92;104458;1290;25387;-72
2022/03/02 04:23:08;;;;;;;59.10;34.50;;;;;;;-0.72;54.59;101533.27;104496;1291;23988;-74
2022/03/02 04:25:35;;;;;;;58.20;33.40;;;;;;;-0.69;54.66;101536.70;104588;1288;25510;-75
2022/03/02 04:28:03;;;;;;;47.70;29.40;;;;;;;-0.70;54.41;101539.56;104534;1288;22930;-76
2022/03/02 04:30:31;;;;;;;47.80;31.50;;;;;;;-0.78;54.57;101536.55;105340;1283;22696;-79
2022/03/02 04:33:00;;;;;;;53.30;31.50;;;;;;;-0.81;54.64;101540.77;105997;1278;24233;-76
2022/03/02 04:35:27;;;;;;;56.80;30.80;;;;;;;-0.81;54.73;101539.33;105860;1277;22557;-75
2022/03/02 04:37:55;;;;;;;49.70;26.40;;;;;;;-0.82;54.65;101535.83;105674;1281;25909;-76
2022/03/02 04:40:22;;;;;;;45.70;26.60;;;;;;;-0.88;54.65;101536.52;105684;1283;24800;-76
2022/03/02 04:42:49;;;;;;;49.90;29.20;;;;;;;-0.90;54.69;101537.95;105345;1284;22557;-75
2022/03/02 04:45:16;;;;;;;52.30;29.90;;;;;;;-0.91;54.94;101534.98;105267;1281;25380;-75
2022/03/02 04:47:43;;;;;;;44.90;27.30;;;;;;;-0.89;54.93;101541.35;105485;1281;23296;-85
2022/03/02 04:50:12;;;;;;;49.40;27.00;;;;;;;-0.90;54.94;101542.11;105512;1283;24391;-76
2022/03/02 04:52:40;;;;;;;48.50;27.20;;;;;;;-0.94;54.89;101540.53;105569;1283;22544;-71
2022/03/02 04:55:09;;;;;;;49.80;25.90;;;;;;;-0.96;54.99;101538.67;106068;1277;24264;-74
2022/03/02 04:57:48;;;;;;;54.10;29.00;;;;;;;-0.93;55.05;101538.84;106841;1271;22560;-73
2022/03/02 05:00:19;;;;;;;49.00;27.00;;;;;;;-0.95;54.89;101536.48;107118;1271;25355;-73
2022/03/02 05:02:46;;;;;;;42.10;27.40;;;;;;;-1.02;54.80;101533.16;106462;1271;23045;-74
2022/03/02 05:05:21;;;;;;;49.40;27.00;;;;;;;-1.04;55.07;101531.50;107759;1271;22468;-77
2022/03/02 05:07:49;;;;;;;44.30;26.00;;;;;;;-1.11;54.95;101525.05;108019;1274;22639;-82
2022/03/02 05:10:19;;;;;;;50.90;28.60;;;;;;;-1.07;55.26;101531.48;106712;1272;22550;-77
2022/03/02 05:12:46;;;;;;;48.00;27.50;;;;;;;-1.07;55.21;101527.00;106919;1271;24232;-82
2022/03/02 05:15:15;;;;;;;44.50;25.10;;;;;;;-1.07;55.32;101523.20;106402;1274;24020;-80
2022/03/02 05:17:44;;;;;;;42.00;24.90;;;;;;;-1.07;55.14;101523.36;106605;1274;26562;-76
2022/03/02 05:20:14;;;;;;;43.70;25.90;;;;;;;-1.11;55.27;101521.23;107107;1274;22538;-78
2022/03/02 05:22:41;;;;;;;42.90;24.70;;;;;;;-1.13;55.32;101520.11;108936;1271;22522;-84
2022/03/02 05:25:12;;;;;;;45.30;25.40;;;;;;;-1.13;55.32;101518.71;108059;1271;23843;-82
2022/03/02 05:27:40;;;;;;;43.80;24.80;;;;;;;-1.13;55.48;101521.16;107904;1271;22550;-81
2022/03/02 05:30:09;;;;;;;43.80;25.10;;;;;;;-1.14;55.39;101519.90;106587;1271;24281;-80
2022/03/02 05:32:38;;;;;;;44.70;24.80;;;;;;;-1.16;55.42;101520.27;106402;1272;25522;-77
2022/03/02 05:35:06;;;;;;;45.30;27.10;;;;;;;-1.16;55.42;101516.80;106353;1274;24216;-79
2022/03/02 05:37:34;;;;;;;45.80;26.20;;;;;;;-1.20;55.43;101516.21;105685;1278;22771;-80
2022/03/02 05:40:03;;;;;;;48.00;27.20;;;;;;;-1.22;55.51;101514.55;105781;1281;22575;-81
2022/03/02 05:42:30;;;;;;;47.10;25.70;;;;;;;-1.21;55.70;101511.52;105568;1282;22557;-81
2022/03/02 05:44:58;;;;;;;48.80;26.30;;;;;;;-1.19;55.76;101509.38;105592;1278;22610;-81
2022/03/02 05:47:26;;;;;;;48.10;26.70;;;;;;;-1.19;55.80;101505.58;106020;1281;22538;-81
2022/03/02 05:49:53;;;;;;;44.90;24.30;;;;;;;-1.23;55.81;101508.30;106087;1281;22721;-80
2022/03/02 05:52:20;;;;;;;44.50;24.90;;;;;;;-1.26;55.89;101509.37;106147;1278;24002;-81
2022/03/02 05:54:55;;;;;;;47.60;27.20;;;;;;;-1.25;55.96;101510.42;106469;1264;24163;31
2022/03/02 05:57:23;;;;;;;43.90;25.50;;;;;;;-1.24;55.95;101508.58;109904;1271;22328;-84
2022/03/02 05:59:51;;;;;;;49.60;26.10;;;;;;;-1.28;55.81;101504.59;107129;1278;25526;-74
2022/03/02 06:02:18;;;;;;;51.40;25.80;;;;;;;-1.26;55.94;101506.95;106129;1278;26535;-76
2022/03/02 06:04:47;;;;;;;47.50;25.50;;;;;;;-1.26;56.19;101505.22;105336;1283;24227;-74
2022/03/02 06:07:14;;;;;;;45.00;27.40;;;;;;;-1.21;55.95;101503.91;105123;1284;22532;-75
2022/03/02 06:09:42;;;;;;;45.00;25.50;;;;;;;-1.26;55.83;101505.89;105196;1284;24397;-74
2022/03/02 06:12:13;;;;;;;44.10;24.40;;;;;;;-1.28;55.91;101507.84;104999;1287;25252;-74
2022/03/02 06:14:40;;;;;;;45.20;25.70;;;;;;;-1.23;56.11;101506.38;105161;1284;24330;-73
2022/03/02 06:17:09;;;;;;;47.90;26.40;;;;;;;-1.14;56.15;101510.36;105085;1284;23105;-75
2022/03/02 06:19:39;;;;;;;55.90;30.90;;;;;;;-1.14;55.85;101512.12;105156;1284;25439;-74
2022/03/02 06:22:06;;;;;;;49.60;30.30;;;;;;;-1.14;55.77;101507.08;105156;1278;25366;-74
2022/03/02 06:24:34;;;;;;;59.20;30.10;;;;;;;-1.13;55.87;101508.34;105955;1274;26712;-74
2022/03/02 06:27:01;;;;;;;78.20;40.90;;;;;;;-1.12;55.88;101512.58;105990;1274;24498;-75
2022/03/02 06:29:28;;;;;;;70.60;39.80;;;;;;;-1.08;55.77;101514.63;105961;1272;25365;-74
2022/03/02 06:31:55;;;;;;;60.10;32.10;;;;;;;-1.08;55.78;101511.39;105832;1275;22590;-73
2022/03/02 06:34:22;;;;;;;47.30;26.50;;;;;;;-1.05;55.69;101507.08;106062;1274;24244;-78
2022/03/02 06:36:51;;;;;;;48.60;27.40;;;;;;;-1.09;55.61;101506.30;106027;1274;22682;-81
2022/03/02 06:39:21;;;;;;;41.80;25.40;;;;;;;-1.16;55.66;101508.84;106101;1272;25360;-81
2022/03/02 06:42:24;;;;;;;40.60;24.20;;;;;;;-1.20;55.83;101501.02;106223;1274;24149;-76
2022/03/02 06:44:55;;;;;;;43.10;25.10;;;;;;;-1.17;56.09;101502.77;106266;1271;25965;-78
2022/03/02 06:47:27;;;;;;;39.60;23.10;;;;;;;-1.13;56.06;101505.41;106119;1272;23922;-78
2022/03/02 06:50:12;;;;;;;41.80;23.80;;;;;;;-1.13;56.08;101500.71;106009;1274;25598;-79
2022/03/02 06:52:44;;;;;;;37.80;21.30;;;;;;;-1.11;55.92;101496.16;105762;1278;24339;-77
2022/03/02 06:55:15;;;;;;;41.90;21.60;;;;;;;-1.11;55.91;101495.79;105830;1277;25536;-76
2022/03/02 06:57:51;;;;;;;34.00;20.90;;;;;;;-1.06;56.02;101505.24;105198;1284;25360;-76
2022/03/02 07:00:19;;;;;;;33.70;21.30;;;;;;;-0.97;55.99;101498.67;105183;1282;24695;-78
2022/03/02 07:02:49;;;;;;;35.00;20.50;;;;;;;-0.83;56.04;101495.80;105240;1284;23975;-78
2022/03/02 07:05:18;;;;;;;36.40;20.30;;;;;;;-0.72;55.81;101493.10;105120;1285;25411;-78
2022/03/02 07:07:46;;;;;;;34.50;21.50;;;;;;;-0.67;55.67;101491.65;105470;1283;25399;-78
2022/03/02 07:10:14;;;;;;;39.30;22.10;;;;;;;-0.60;55.46;101493.61;105429;1276;23956;-80
2022/03/02 07:12:41;;;;;;;35.60;19.40;;;;;;;-0.52;55.58;101494.52;106066;1278;24225;-77
2022/03/02 07:15:10;;;;;;;40.00;22.40;;;;;;;-0.41;55.45;101494.58;105979;1274;22528;-78
2022/03/02 07:17:39;;;;;;;32.40;19.70;;;;;;;-0.32;55.14;101496.98;106166;1275;24215;-79
2022/03/02 07:20:10;;;;;;;38.80;21.20;;;;;;;-0.25;55.24;101494.94;106256;1274;23545;-78
2022/03/02 07:22:47;;;;;;;38.30;20.80;;;;;;;-0.11;55.10;101495.13;106113;1275;22684;-78
2022/03/02 07:25:36;;;;;;;38.60;22.60;;;;;;;0.02;55.02;101493.88;106240;1274;22545;-80
2022/03/02 07:28:04;;;;;;;42.70;22.80;;;;;;;0.15;54.87;101491.43;106080;1274;22687;-79
2022/03/02 07:30:31;;;;;;;37.20;22.60;;;;;;;0.21;54.72;101488.63;106136;1273;22602;-80
2022/03/02 07:33:04;;;;;;;40.30;22.00;;;;;;;0.28;54.57;101485.52;106047;1275;23149;-79
2022/03/02 07:35:37;;;;;;;41.70;24.30;;;;;;;0.32;54.54;101492.30;106001;1276;22556;-79
2022/03/02 07:38:06;;;;;;;38.20;21.10;;;;;;;0.36;54.35;101496.80;105734;1277;23094;-79
2022/03/02 07:40:35;;;;;;;41.90;23.70;;;;;;;0.37;54.44;101490.13;105493;1281;23975;-80
2022/03/02 07:43:02;;;;;;;45.30;24.10;;;;;;;0.44;54.35;101485.94;105767;1277;25473;-80
2022/03/02 07:45:29;;;;;;;37.10;22.80;;;;;;;0.52;54.42;101486.16;105831;1277;23075;-79
2022/03/02 07:47:56;;;;;;;39.80;24.10;;;;;;;0.60;54.38;101479.46;105771;1278;25236;-81
2022/03/02 07:50:25;;;;;;;42.60;24.00;;;;;;;0.66;54.31;101479.23;105854;1278;25609;-79
2022/03/02 07:52:55;;;;;;;39.70;23.50;;;;;;;0.73;54.22;101477.50;105874;1274;25583;-79
2022/03/02 07:55:22;;;;;;;32.80;22.20;;;;;;;0.79;54.13;101478.63;106102;1273;25396;-78
2022/03/02 07:57:53;;;;;;;43.50;24.70;;;;;;;0.88;54.19;101482.02;106062;1274;25394;-77
2022/03/02 08:00:19;;;;;;;40.30;22.60;;;;;;;0.98;54.11;101472.59;106197;1271;24314;-78
2022/03/02 08:02:48;;;;;;;42.80;23.60;;;;;;;1.04;53.86;101465.21;105913;1276;22701;-81
2022/03/02 08:05:17;;;;;;;43.70;24.70;;;;;;;1.09;53.94;101465.66;106014;1277;25459;-79
2022/03/02 08:07:44;;;;;;;42.10;24.50;;;;;;;1.17;53.83;101460.29;106664;1277;22540;-78
2022/03/02 08:10:15;;;;;;;43.70;24.80;;;;;;;1.25;53.71;101456.13;106785;1277;23925;-80
2022/03/02 08:12:42;;;;;;;47.50;26.30;;;;;;;1.34;53.54;101451.35;106193;1278;22496;-77
2022/03/02 08:15:10;;;;;;;40.80;24.60;;;;;;;1.37;53.39;101437.60;107854;1276;24205;-82
2022/03/02 08:17:37;;;;;;;41.30;22.80;;;;;;;1.47;53.10;101444.81;108353;1277;25379;-76
2022/03/02 08:20:06;;;;;;;44.60;23.90;;;;;;;1.49;53.05;101445.92;107593;1274;27120;-80
2022/03/02 08:22:38;;;;;;;35.70;21.60;;;;;;;1.54;53.13;101444.96;106603;1271;25235;-79
2022/03/02 08:25:07;;;;;;;39.90;23.80;;;;;;;1.63;53.17;101444.12;106506;1271;22997;-81
2022/03/02 08:27:39;;;;;;;36.70;21.60;;;;;;;1.73;53.02;101440.20;106467;1272;24396;-79
2022/03/02 08:30:09;;;;;;;35.00;22.20;;;;;;;1.86;52.87;101435.55;106499;1271;24284;-81
2022/03/02 08:32:44;;;;;;;37.30;21.40;;;;;;;1.98;52.69;101437.80;106309;1271;25113;-80
2022/03/02 08:35:12;;;;;;;37.90;21.30;;;;;;;2.07;52.52;101437.15;106392;1271;24240;-82
2022/03/02 08:37:41;;;;;;;38.40;21.50;;;;;;;2.17;52.38;101438.60;106548;1271;25561;-79
2022/03/02 08:40:11;;;;;;;35.10;21.10;;;;;;;2.29;52.30;101430.05;106578;1271;24219;-79
2022/03/02 08:42:38;;;;;;;41.30;20.80;;;;;;;2.45;52.31;101429.48;106379;1271;22541;-78
2022/03/02 08:45:07;;;;;;;33.30;19.10;;;;;;;2.59;52.04;101418.60;106468;1272;22756;-81
2022/03/02 08:47:34;;;;;;;34.50;18.60;;;;;;;2.73;51.87;101412.00;106148;1271;23304;-77
2022/03/02 08:50:02;;;;;;;32.70;18.20;;;;;;;2.85;51.63;101409.34;106186;1274;25780;-78
2022/03/02 08:52:31;;;;;;;27.40;16.40;;;;;;;2.97;51.76;101407.90;106279;1271;24691;-78
2022/03/02 08:55:04;;;;;;;29.40;16.90;;;;;;;3.11;51.68;101406.52;106074;1271;24774;-78
2022/03/02 08:57:34;;;;;;;27.40;17.50;;;;;;;3.26;51.68;101400.59;106561;1271;22546;-81
2022/03/02 09:00:07;;;;;;;35.90;16.60;;;;;;;3.42;51.57;101400.67;106164;1271;24155;-79
2022/03/02 09:02:36;;;;;;;30.80;17.30;;;;;;;3.59;51.70;101395.52;106062;1271;22547;-81
2022/03/02 09:05:05;;;;;;;32.50;17.90;;;;;;;3.76;51.60;101391.40;105684;1277;22577;-80
2022/03/02 09:07:33;;;;;;;28.80;17.80;;;;;;;3.92;51.14;101388.66;105674;1278;22765;-79
2022/03/02 09:10:01;;;;;;;29.80;17.10;;;;;;;4.09;51.03;101386.77;105656;1278;25268;-80
2022/03/02 09:12:28;;;;;;;33.10;17.90;;;;;;;4.28;50.79;101386.34;105513;1278;24615;-80
2022/03/02 09:14:56;;;;;;;32.80;17.10;;;;;;;4.49;50.51;101381.08;105679;1278;22544;-79
2022/03/02 09:17:25;;;;;;;29.30;15.60;;;;;;;4.69;50.37;101381.55;105779;1278;23113;-79
2022/03/02 09:19:53;;;;;;;25.60;15.40;;;;;;;4.90;49.92;101380.58;105899;1277;22529;-80
2022/03/02 09:22:26;;;;;;;27.60;16.10;;;;;;;5.08;49.50;101380.23;105746;1274;25360;-79
2022/03/02 09:24:54;;;;;;;29.50;17.00;;;;;;;5.27;49.12;101373.64;106447;1271;23541;-78
2022/03/02 09:27:21;;;;;;;29.30;16.20;;;;;;;5.45;48.97;101369.95;106487;1271;23910;-78
2022/03/02 09:29:50;;;;;;;25.30;14.10;;;;;;;5.61;48.47;101369.52;106528;1274;22711;-78
2022/03/02 09:32:19;;;;;;;27.10;14.70;;;;;;;5.81;48.48;101363.91;106776;1271;26078;-78
2022/03/02 09:34:49;;;;;;;26.80;14.30;;;;;;;6.01;48.22;101361.29;107086;1271;23966;-81
2022/03/02 09:37:17;;;;;;;25.50;15.30;;;;;;;6.23;47.93;101359.23;106684;1271;25589;-79
2022/03/02 09:39:49;;;;;;;31.60;17.10;;;;;;;6.43;47.31;101353.90;106345;1271;22546;-81
2022/03/02 09:42:26;;;;;;;33.60;17.90;;;;;;;6.61;46.98;101352.57;106397;1274;23932;-79
2022/03/02 09:45:01;;;;;;;31.30;16.30;;;;;;;6.83;46.46;101352.02;106401;1271;22698;-80
2022/03/02 09:47:49;;;;;;;29.90;16.90;;;;;;;7.02;46.25;101345.58;106922;1271;22675;-80
2022/03/02 09:50:18;;;;;;;24.90;15.40;;;;;;;7.28;46.02;101336.29;107364;1270;22538;-80
2022/03/02 09:52:47;;;;;;;19.90;12.40;;;;;;;7.48;45.56;101336.13;106780;1271;22694;-81
2022/03/02 09:55:21;;;;;;;18.90;11.30;;;;;;;7.61;44.58;101333.75;106821;1271;22559;-81
2022/03/02 09:57:54;;;;;;;15.90;9.90;;;;;;;7.68;43.91;101328.63;106934;1271;24214;-81
2022/03/02 10:00:23;;;;;;;17.10;9.40;;;;;;;7.69;43.30;101326.71;106961;1271;22560;-81
2022/03/02 10:02:55;;;;;;;15.40;9.80;;;;;;;7.68;42.75;101317.21;106456;1271;22564;-81
2022/03/02 10:05:31;;;;;;;19.60;10.00;;;;;;;7.82;42.57;101315.19;106208;1272;25911;-82
2022/03/02 10:08:05;;;;;;;13.30;8.60;;;;;;;8.01;42.31;101317.94;106285;1271;22608;-81
2022/03/02 10:10:36;;;;;;;14.50;10.10;;;;;;;8.15;42.08;101315.19;105948;1271;371699;-81
2022/03/02 10:13:10;;;;;;;22.60;11.20;;;;;;;8.36;41.91;101310.60;106212;1271;22481;-79
2022/03/02 10:15:39;;;;;;;13.60;9.10;;;;;;;8.53;41.67;101305.06;105668;1278;24310;-79
2022/03/02 10:18:11;;;;;;;23.70;9.60;;;;;;;8.74;41.15;101305.18;105671;1278;22972;-80
2022/03/02 10:20:49;;;;;;;11.70;8.40;;;;;;;8.92;40.52;101301.20;105587;1278;25650;-80
2022/03/02 10:23:42;;;;;;;14.60;8.50;;;;;;;9.11;39.93;101300.02;105861;1279;24754;-80
2022/03/02 10:26:15;;;;;;;13.90;8.30;;;;;;;9.37;39.28;101293.27;105841;1277;24094;-82
2022/03/02 10:28:51;;;;;;;13.40;8.20;;;;;;;9.58;38.84;101292.58;105954;1276;25950;-81
2022/03/02 10:31:32;;;;;;;13.40;7.30;;;;;;;9.79;38.30;101285.55;106104;1277;22549;-79
2022/03/02 10:34:07;;;;;;;14.30;7.70;;;;;;;10.03;37.54;101283.29;106182;1271;25505;-79
2022/03/02 10:36:39;;;;;;;13.90;7.80;;;;;;;10.22;37.11;101276.91;106485;1271;22637;-81
2022/03/02 10:39:08;;;;;;;12.70;7.20;;;;;;;10.38;36.87;101281.41;106232;1271;23776;-80
2022/03/02 10:41:39;;;;;;;12.50;6.70;;;;;;;10.50;36.38;101277.80;106150;1271;25440;-79
2022/03/02 10:44:52;;;;;;;14.30;6.80;;;;;;;10.59;35.87;101275.91;106255;1271;25368;-80
2022/03/02 10:47:25;;;;;;;13.70;7.20;;;;;;;10.67;35.42;101272.61;106090;1271;25255;-80
2022/03/02 10:49:52;;;;;;;11.30;7.50;;;;;;;10.79;35.51;101271.96;106251;1271;22540;-80
2022/03/02 10:52:21;;;;;;;16.10;8.00;;;;;;;10.92;35.47;101270.95;106327;1271;23159;-81
2022/03/02 10:54:49;;;;;;;13.30;7.60;;;;;;;11.15;35.01;101263.09;106138;1271;23010;-79
2022/03/02 10:57:19;;;;;;;13.80;7.80;;;;;;;11.26;34.82;101261.35;106284;1271;22558;-78
2022/03/02 10:59:47;;;;;;;10.90;6.70;;;;;;;11.40;34.48;101255.20;106183;1271;24251;-78
2022/03/02 11:02:16;;;;;;;9.60;6.50;;;;;;;11.50;34.15;101248.52;106384;1271;22547;-84
2022/03/02 11:04:47;;;;;;;10.80;7.00;;;;;;;11.57;33.80;101244.81;106276;1271;24214;-81
2022/03/02 11:07:16;;;;;;;11.60;7.70;;;;;;;11.59;33.73;101237.77;106685;1271;25235;-82
2022/03/02 11:10:01;;;;;;;14.40;7.80;;;;;;;11.74;33.75;101230.70;106474;1271;22571;-82
2022/03/02 11:12:30;;;;;;;10.90;7.30;;;;;;;11.91;33.50;101227.85;106450;1271;25458;-81
2022/03/02 11:15:03;;;;;;;14.30;8.20;;;;;;;11.99;33.17;101227.50;107085;1271;22691;-78
2022/03/02 11:17:31;;;;;;;10.40;6.90;;;;;;;11.99;33.00;101226.98;107986;1271;25486;-79
2022/03/02 11:20:04;;;;;;;12.50;7.00;;;;;;;11.93;32.62;101221.85;107271;1271;22539;-80